Time;durP1;ratioP1;P1;durP2;ratioP2;P2;SDS_P1;SDS_P2;PMS_P1;PMS_P2;Temp;Humidity;BMP_temperature;BMP_pressure;BME280_temperature;BME280_humidity;BME280_pressure;Samples;Min_cycle;Max_cycle;Signal;HPM_P1;HPM_P2
2023/11/16 00:00:35;;;;;;;;;;;;;;;2.05;87.67;101139.45;106453;1257;62377;-80
2023/11/16 00:03:23;;;;;;;;;;;;;;;2.04;87.79;101140.73;106411;1257;60409;-80
2023/11/16 00:05:50;;;;;;;;;;;;;;;2.03;87.92;101143.30;106358;1258;75953;-81
2023/11/16 00:08:17;;;;;;;;;;;;;;;2.03;87.92;101145.52;106387;1257;124746;-81
2023/11/16 00:10:43;;;;;;;;;;;;;;;2.01;87.82;101147.17;106370;1257;73870;-83
2023/11/16 00:13:10;;;;;;;;;;;;;;;2.01;87.88;101147.83;106307;1257;125030;-82
2023/11/16 00:15:36;;;;;;;;;;;;;;;1.99;87.78;101148.20;106487;1258;61980;-82
2023/11/16 00:18:04;;;;;;;;;;;;;;;1.97;87.76;101151.37;106347;1261;75553;-82
2023/11/16 00:20:32;;;;;;;;;;;;;;;1.96;87.94;101149.89;106309;1258;125726;-82
2023/11/16 00:22:59;;;;;;;;;;;;;;;1.94;87.89;101151.21;106364;1258;71423;-88
2023/11/16 00:25:26;;;;;;;;;;;;;;;1.94;88.03;101150.50;106316;1257;125010;-88
2023/11/16 00:27:53;;;;;;;;;;;;;;;1.94;87.93;101152.93;106376;1257;60872;-88
2023/11/16 00:30:19;;;;;;;;;;;;;;;1.94;88.00;101156.20;106534;1257;73892;-88
2023/11/16 00:32:46;;;;;;;;;;;;;;;1.93;88.15;101159.29;106381;1257;126453;-88
2023/11/16 00:35:13;;;;;;;;;;;;;;;1.93;88.02;101163.08;106339;1261;71142;-88
2023/11/16 00:37:39;;;;;;;;;;;;;;;1.92;88.04;101163.84;106246;1257;125079;-89
2023/11/16 00:40:07;;;;;;;;;;;;;;;1.90;87.99;101164.97;106459;1258;60684;-87
2023/11/16 00:42:36;;;;;;;;;;;;;;;1.89;88.09;101163.65;106432;1259;74244;-80
2023/11/16 00:45:03;;;;;;;;;;;;;;;1.88;87.84;101162.03;106327;1258;125056;-81
2023/11/16 00:47:30;;;;;;;;;;;;;;;1.86;88.00;101163.48;106297;1257;71488;-81
2023/11/16 00:49:56;;;;;;;;;;;;;;;1.85;88.13;101160.08;106071;1257;124921;-81
2023/11/16 00:52:24;;;;;;;;;;;;;;;1.84;88.11;101161.24;106163;1258;60203;-81
2023/11/16 00:54:51;;;;;;;;;;;;;;;1.82;88.04;101160.92;106274;1257;75388;-81
2023/11/16 00:57:18;;;;;;;;;;;;;;;1.82;88.00;101158.64;106253;1258;125091;-80
2023/11/16 00:59:48;;;;;;;;;;;;;;;1.81;88.16;101163.80;106300;1258;74165;-87
2023/11/16 01:02:14;;;;;;;;;;;;;;;1.81;88.34;101165.72;106260;1263;125538;-87
2023/11/16 01:04:41;;;;;;;;;;;;;;;1.82;88.37;101170.96;106584;1260;62029;-87
2023/11/16 01:07:10;;;;;;;;;;;;;;;1.82;88.41;101171.88;106300;1258;123985;-87
2023/11/16 01:09:37;;;;;;;;;;;;;;;1.82;88.43;101171.52;106393;1257;63739;-81
2023/11/16 01:12:04;;;;;;;;;;;;;;;1.81;88.21;101172.14;106205;1263;72748;-87
2023/11/16 01:14:30;;;;;;;;;;;;;;;1.81;88.19;101176.59;106205;1261;125033;-86
2023/11/16 01:17:07;;;;;;;;;;;;;;;1.80;88.34;101177.95;106347;1257;60081;-88
2023/11/16 01:19:37;;;;;;;;;;;;;;;1.80;88.36;101175.83;106241;1257;125052;-87
2023/11/16 01:22:04;;;;;;;;;;;;;;;1.78;88.49;101176.96;106424;1261;66663;-87
2023/11/16 01:24:35;;;;;;;;;;;;;;;1.79;88.41;101175.08;106596;1258;71067;-88
2023/11/16 01:27:15;;;;;;;;;;;;;;;1.79;88.38;101174.08;106456;1258;125054;-87
2023/11/16 01:29:45;;;;;;;;;;;;;;;1.79;88.35;101173.70;106396;1258;61979;-87
2023/11/16 01:32:12;;;;;;;;;;;;;;;1.78;88.43;101172.61;106477;1258;125539;-87
2023/11/16 01:34:41;;;;;;;;;;;;;;;1.78;88.34;101169.83;106588;1257;64818;-85
2023/11/16 01:37:09;;;;;;;;;;;;;;;1.77;88.24;101172.22;106515;1257;125626;-86
2023/11/16 01:39:35;;;;;;;;;;;;;;;1.76;88.29;101169.34;106499;1261;61943;-86
2023/11/16 01:42:02;;;;;;;;;;;;;;;1.73;88.24;101171.73;106465;1257;62158;-87
2023/11/16 01:44:29;;;;;;;;;;;;;;;1.70;88.17;101174.72;106491;1259;126734;-88
2023/11/16 01:46:56;;;;;;;;;;;;;;;1.69;88.27;101176.69;106494;1261;65121;-88
2023/11/16 01:49:23;;;;;;;;;;;;;;;1.67;88.31;101178.48;106434;1258;126098;-88
2023/11/16 01:51:55;;;;;;;;;;;;;;;1.67;88.28;101179.98;106492;1261;62087;-87
2023/11/16 01:54:22;;;;;;;;;;;;;;;1.66;88.44;101180.80;106521;1257;61931;-87
2023/11/16 01:56:50;;;;;;;;;;;;;;;1.66;88.58;101178.77;106329;1258;125179;-80
2023/11/16 01:59:17;;;;;;;;;;;;;;;1.67;88.46;101176.36;106482;1258;65019;-87
2023/11/16 02:01:44;;;;;;;;;;;;;;;1.66;88.45;101171.52;106367;1258;124023;-88
2023/11/16 02:04:10;;;;;;;;;;;;;;;1.66;88.56;101170.45;106401;1258;62062;-88
2023/11/16 02:06:40;;;;;;;;;;;;;;;1.65;88.54;101170.73;106476;1260;61900;-88
2023/11/16 02:09:07;;;;;;;;;;;;;;;1.64;88.43;101173.41;106452;1257;123920;-87
2023/11/16 02:11:33;;;;;;;;;;;;;;;1.63;88.54;101173.67;106442;1257;64956;-87
2023/11/16 02:14:00;;;;;;;;;;;;;;;1.62;88.44;101173.77;106322;1257;124793;-88
2023/11/16 02:16:28;;;;;;;;;;;;;;;1.60;88.29;101177.29;106508;1258;62171;-87
2023/11/16 02:18:55;;;;;;;;;;;;;;;1.59;88.48;101175.64;106448;1258;60192;-88
2023/11/16 02:21:26;;;;;;;;;;;;;;;1.57;88.41;101175.01;106453;1263;75586;-81
2023/11/16 02:23:53;;;;;;;;;;;;;;;1.54;88.41;101172.73;106279;1261;66370;-80
2023/11/16 02:26:19;;;;;;;;;;;;;;;1.53;88.36;101171.44;106350;1258;124779;-80
2023/11/16 02:28:46;;;;;;;;;;;;;;;1.52;88.29;101163.05;106388;1257;62151;-81
2023/11/16 02:31:18;;;;;;;;;;;;;;;1.49;88.55;101164.30;106359;1259;125317;-82
2023/11/16 02:33:44;;;;;;;;;;;;;;;1.47;88.23;101165.83;106502;1261;75505;-87
2023/11/16 02:36:11;;;;;;;;;;;;;;;1.45;88.26;101168.63;106397;1258;67579;-88
2023/11/16 02:38:38;;;;;;;;;;;;;;;1.42;88.32;101170.52;106343;1263;125717;-88
2023/11/16 02:41:07;;;;;;;;;;;;;;;1.40;88.42;101175.40;106437;1257;62188;-88
2023/11/16 02:43:34;;;;;;;;;;;;;;;1.39;88.37;101181.04;106293;1258;125092;-88
2023/11/16 02:46:03;;;;;;;;;;;;;;;1.38;88.49;101186.88;106492;1258;75534;-87
2023/11/16 02:48:31;;;;;;;;;;;;;;;1.38;88.53;101183.24;106401;1257;64810;-88
2023/11/16 02:50:58;;;;;;;;;;;;;;;1.38;88.64;101183.39;106351;1257;124847;-87
2023/11/16 02:53:24;;;;;;;;;;;;;;;1.37;88.68;101186.27;106411;1264;61936;-88
2023/11/16 02:55:51;;;;;;;;;;;;;;;1.37;88.49;101180.40;106391;1259;124850;-87
2023/11/16 02:58:19;;;;;;;;;;;;;;;1.37;88.74;101179.36;106285;1258;74480;-87
2023/11/16 03:00:45;;;;;;;;;;;;;;;1.37;88.65;101179.35;106232;1258;66392;-87
2023/11/16 03:03:12;;;;;;;;;;;;;;;1.36;88.83;101179.69;106327;1258;124907;-88
2023/11/16 03:05:40;;;;;;;;;;;;;;;1.39;88.88;101182.64;106374;1258;62219;-88
2023/11/16 03:08:07;;;;;;;;;;;;;;;1.39;88.74;101183.83;106340;1259;124833;-88
2023/11/16 03:10:35;;;;;;;;;;;;;;;1.38;88.63;101185.85;106470;1262;74217;-88
2023/11/16 03:13:03;;;;;;;;;;;;;;;1.35;88.88;101185.16;106412;1259;125644;-87
2023/11/16 03:15:30;;;;;;;;;;;;;;;1.34;88.67;101189.73;106377;1257;71077;-87
2023/11/16 03:17:57;;;;;;;;;;;;;;;1.33;88.53;101194.83;106388;1258;62108;-81
2023/11/16 03:20:25;;;;;;;;;;;;;;;1.31;88.68;101194.90;106305;1258;125018;-82
2023/11/16 03:22:52;;;;;;;;;;;;;;;1.29;88.60;101193.52;106555;1261;73310;-82
2023/11/16 03:25:20;;;;;;;;;;;;;;;1.25;88.58;101188.42;106416;1261;125216;-82
2023/11/16 03:27:46;;;;;;;;;;;;;;;1.21;88.25;101191.94;106343;1258;71408;-87
2023/11/16 03:30:16;;;;;;;;;;;;;;;1.19;88.50;101193.48;106593;1257;60139;-86
2023/11/16 03:32:45;;;;;;;;;;;;;;;1.16;88.52;101194.70;106455;1257;125095;-81
2023/11/16 03:35:15;;;;;;;;;;;;;;;1.14;88.53;101195.10;106587;1257;73922;-81
2023/11/16 03:37:42;;;;;;;;;;;;;;;1.13;88.53;101203.67;106210;1258;125784;-80
2023/11/16 03:40:09;;;;;;;;;;;;;;;1.13;88.78;101206.92;106415;1257;72669;-82
2023/11/16 03:42:35;;;;;;;;;;;;;;;1.12;88.68;101208.92;106471;1256;61980;-82
2023/11/16 03:45:02;;;;;;;;;;;;;;;1.11;88.55;101211.67;106222;1259;125006;-83
2023/11/16 03:47:29;;;;;;;;;;;;;;;1.10;88.71;101212.09;106421;1258;75354;-83
2023/11/16 03:49:58;;;;;;;;;;;;;;;1.09;88.73;101215.64;106414;1262;124860;-87
2023/11/16 03:52:24;;;;;;;;;;;;;;;1.09;88.70;101215.27;106363;1258;73284;-87
2023/11/16 03:54:51;;;;;;;;;;;;;;;1.10;88.89;101218.63;106426;1259;62161;-87
2023/11/16 03:57:17;;;;;;;;;;;;;;;1.10;88.76;101216.74;106337;1257;124866;-88
2023/11/16 03:59:44;;;;;;;;;;;;;;;1.10;88.90;101218.11;106482;1257;73660;-88
2023/11/16 04:02:11;;;;;;;;;;;;;;;1.08;88.75;101217.78;106316;1257;125075;-86
2023/11/16 04:04:37;;;;;;;;;;;;;;;1.06;88.77;101215.42;106395;1258;72716;-87
2023/11/16 04:07:04;;;;;;;;;;;;;;;1.06;88.66;101215.40;106317;1261;125959;-87
2023/11/16 04:09:31;;;;;;;;;;;;;;;1.05;88.62;101219.00;106457;1258;62140;-87
2023/11/16 04:11:57;;;;;;;;;;;;;;;1.05;88.77;101219.66;106392;1259;75513;-88
2023/11/16 04:14:25;;;;;;;;;;;;;;;1.04;88.70;101217.52;106276;1258;124906;-88
2023/11/16 04:16:54;;;;;;;;;;;;;;;1.04;88.77;101218.17;106399;1259;71400;-88
2023/11/16 04:19:20;;;;;;;;;;;;;;;1.04;88.63;101222.00;106221;1261;125054;-81
2023/11/16 04:21:47;;;;;;;;;;;;;;;1.04;88.69;101224.58;106469;1258;62183;-81
2023/11/16 04:24:14;;;;;;;;;;;;;;;1.02;88.54;101222.36;106271;1259;75478;-88
2023/11/16 04:26:41;;;;;;;;;;;;;;;1.00;88.58;101221.89;106317;1258;124760;-87
2023/11/16 04:29:07;;;;;;;;;;;;;;;0.96;88.45;101219.42;106484;1261;72705;-88
2023/11/16 04:31:34;;;;;;;;;;;;;;;0.93;88.50;101219.55;106449;1258;123898;-88
2023/11/16 04:34:01;;;;;;;;;;;;;;;0.92;88.34;101214.44;106553;1260;61983;-89
2023/11/16 04:36:30;;;;;;;;;;;;;;;0.90;88.48;101216.39;106342;1257;75507;-88
2023/11/16 04:38:57;;;;;;;;;;;;;;;0.89;88.57;101217.85;106284;1258;125063;-88
2023/11/16 04:41:24;;;;;;;;;;;;;;;0.87;88.47;101211.88;106322;1258;72704;-88
2023/11/16 04:43:51;;;;;;;;;;;;;;;0.85;88.41;101210.29;105964;1258;125165;-89
2023/11/16 04:46:18;;;;;;;;;;;;;;;0.84;88.57;101206.41;106418;1259;62062;-90
2023/11/16 04:48:46;;;;;;;;;;;;;;;0.84;88.61;101201.41;106437;1264;75509;-89
2023/11/16 04:51:24;;;;;;;;;;;;;;;0.84;88.71;101201.92;106476;1258;124937;-89
2023/11/16 04:53:51;;;;;;;;;;;;;;;0.84;88.69;101207.09;106414;1259;71339;-90
2023/11/16 04:56:17;;;;;;;;;;;;;;;0.84;88.94;101203.64;106292;1258;125402;-89
2023/11/16 04:58:44;;;;;;;;;;;;;;;0.84;88.77;101198.98;106375;1258;60304;-88
2023/11/16 05:01:14;;;;;;;;;;;;;;;0.83;88.72;101204.27;106269;1258;125223;-87
2023/11/16 05:03:44;;;;;;;;;;;;;;;0.81;88.55;101208.78;106464;1259;66377;-87
2023/11/16 05:06:12;;;;;;;;;;;;;;;0.80;88.50;101204.41;106382;1264;73605;-88
2023/11/16 05:08:40;;;;;;;;;;;;;;;0.77;88.52;101207.17;106327;1261;125937;-87
2023/11/16 05:11:07;;;;;;;;;;;;;;;0.74;88.34;101203.66;106335;1259;62014;-88
2023/11/16 05:13:34;;;;;;;;;;;;;;;0.70;88.27;101205.98;106346;1261;125189;-85
2023/11/16 05:16:01;;;;;;;;;;;;;;;0.66;88.10;101210.53;106439;1264;65555;-85
2023/11/16 05:18:28;;;;;;;;;;;;;;;0.62;88.20;101206.77;106572;1259;72781;-85
2023/11/16 05:20:54;;;;;;;;;;;;;;;0.59;88.24;101209.68;106315;1258;126169;-80
2023/11/16 05:23:21;;;;;;;;;;;;;;;0.57;88.10;101206.95;106434;1263;61976;-84
2023/11/16 05:25:48;;;;;;;;;;;;;;;0.55;88.18;101205.42;106313;1259;124906;-85
2023/11/16 05:28:16;;;;;;;;;;;;;;;0.53;87.91;101208.52;106410;1258;64976;-85
2023/11/16 05:30:43;;;;;;;;;;;;;;;0.49;88.00;101209.66;106424;1259;71891;-87
2023/11/16 05:33:10;;;;;;;;;;;;;;;0.48;87.90;101202.97;106387;1258;125047;-85
2023/11/16 05:35:38;;;;;;;;;;;;;;;0.47;88.05;101201.52;106437;1261;61968;-85
2023/11/16 05:38:05;;;;;;;;;;;;;;;0.48;88.18;101199.02;106259;1259;124914;-86
2023/11/16 05:40:33;;;;;;;;;;;;;;;0.49;88.11;101205.13;106277;1258;66307;-86
2023/11/16 05:43:02;;;;;;;;;;;;;;;0.49;88.28;101200.31;106298;1257;125144;-84
2023/11/16 05:45:29;;;;;;;;;;;;;;;0.51;88.05;101198.73;106253;1259;62091;-86
2023/11/16 05:47:56;;;;;;;;;;;;;;;0.52;88.41;101197.73;106361;1258;62187;-86
2023/11/16 05:50:24;;;;;;;;;;;;;;;0.55;88.30;101194.85;106287;1261;124956;-87
2023/11/16 05:52:52;;;;;;;;;;;;;;;0.55;88.06;101193.31;106395;1261;66256;-85
2023/11/16 05:55:20;;;;;;;;;;;;;;;0.54;88.12;101197.92;106204;1258;125094;-85
2023/11/16 05:57:49;;;;;;;;;;;;;;;0.54;88.44;101198.05;106374;1258;62145;-86
2023/11/16 06:00:16;;;;;;;;;;;;;;;0.53;88.10;101201.15;106378;1264;62028;-86
2023/11/16 06:02:42;;;;;;;;;;;;;;;0.50;87.75;101200.41;106397;1261;125902;-87
2023/11/16 06:05:09;;;;;;;;;;;;;;;0.49;87.88;101194.30;106506;1261;65276;-86
2023/11/16 06:07:36;;;;;;;;;;;;;;;0.50;87.96;101193.30;106301;1258;125190;-89
2023/11/16 06:10:04;;;;;;;;;;;;;;;0.50;87.88;101190.90;106573;1259;62180;-91
2023/11/16 06:12:32;;;;;;;;;;;;;;;0.50;87.82;101194.84;106547;1257;62146;-88
2023/11/16 06:15:00;;;;;;;;;;;;;;;0.48;87.91;101191.10;106373;1257;125002;-87
2023/11/16 06:17:27;;;;;;;;;;;;;;;0.49;87.93;101192.52;106338;1257;65128;-85
2023/11/16 06:19:53;;;;;;;;;;;;;;;0.52;87.91;101194.86;106185;1264;124912;-85
2023/11/16 06:22:23;;;;;;;;;;;;;;;0.58;88.23;101196.63;106323;1258;62043;-87
2023/11/16 06:24:50;;;;;;;;;;;;;;;0.64;88.23;101198.25;106433;1259;62067;-83
2023/11/16 06:27:16;;;;;;;;;;;;;;;0.68;88.25;101191.95;106144;1258;124778;-85
2023/11/16 06:29:44;;;;;;;;;;;;;;;0.71;88.08;101193.06;106406;1258;65109;-88
2023/11/16 06:32:11;;;;;;;;;;;;;;;0.74;88.14;101188.08;106188;1258;124749;-80
2023/11/16 06:34:38;;;;;;;;;;;;;;;0.76;88.12;101195.20;106382;1263;62049;-77
2023/11/16 06:37:04;;;;;;;;;;;;;;;0.80;88.03;101195.78;106095;1258;125095;-77
2023/11/16 06:39:31;;;;;;;;;;;;;;;0.82;87.94;101195.97;106041;1259;75123;-78
2023/11/16 06:41:59;;;;;;;;;;;;;;;0.88;88.16;101198.29;106485;1261;66026;-78
2023/11/16 06:44:27;;;;;;;;;;;;;;;0.92;88.23;101201.14;105706;1258;125965;-79
2023/11/16 06:46:54;;;;;;;;;;;;;;;0.94;87.90;101203.21;106671;1260;61947;-78
2023/11/16 06:49:21;;;;;;;;;;;;;;;0.97;87.83;101203.43;105872;1264;124941;-88
2023/11/16 06:51:48;;;;;;;;;;;;;;;1.02;87.90;101203.54;106889;1261;74086;-78
2023/11/16 06:54:17;;;;;;;;;;;;;;;1.05;87.99;101204.30;106896;1258;64696;-87
2023/11/16 06:56:44;;;;;;;;;;;;;;;1.11;87.90;101201.26;106683;1257;125064;-87
2023/11/16 06:59:12;;;;;;;;;;;;;;;1.18;87.91;101197.22;106578;1261;62258;-87
2023/11/16 07:01:40;;;;;;;;;;;;;;;1.27;88.04;101192.84;106399;1258;125374;-87
2023/11/16 07:04:07;;;;;;;;;;;;;;;1.34;87.90;101193.38;106462;1258;75527;-87
2023/11/16 07:06:33;;;;;;;;;;;;;;;1.41;88.02;101197.06;106435;1257;66121;-87
2023/11/16 07:09:01;;;;;;;;;;;;;;;1.46;88.03;101195.73;106353;1258;125292;-87
2023/11/16 07:11:28;;;;;;;;;;;;;;;1.53;88.09;101193.10;106535;1261;62088;-87
2023/11/16 07:13:54;;;;;;;;;;;;;;;1.59;87.79;101199.00;106292;1263;125082;-87
2023/11/16 07:16:22;;;;;;;;;;;;;;;1.64;87.76;101198.64;107491;1259;75546;-87
2023/11/16 07:18:49;;;;;;;;;;;;;;;1.70;87.92;101199.77;106484;1259;65328;-87
2023/11/16 07:21:16;;;;;;;;;;;;;;;1.76;87.68;101203.98;106269;1258;124824;-87
2023/11/16 07:23:42;;;;;;;;;;;;;;;1.77;87.80;101204.23;106448;1263;62131;-87
2023/11/16 07:26:09;;;;;;;;;;;;;;;1.79;87.68;101206.22;105865;1259;124870;-87
2023/11/16 07:28:37;;;;;;;;;;;;;;;1.80;87.54;101207.70;105899;1261;75483;-86
2023/11/16 07:31:04;;;;;;;;;;;;;;;1.81;87.56;101206.52;105841;1259;125154;-85
2023/11/16 07:33:34;;;;;;;;;;;;;;;1.84;87.52;101209.69;105970;1257;71544;-86
2023/11/16 07:36:01;;;;;;;;;;;;;;;1.88;87.66;101210.81;105851;1261;62102;-77
2023/11/16 07:38:28;;;;;;;;;;;;;;;1.90;87.50;101208.41;105737;1261;125017;-87
2023/11/16 07:40:57;;;;;;;;;;;;;;;1.91;87.35;101210.55;105957;1258;74569;-78
2023/11/16 07:43:24;;;;;;;;;;;;;;;1.97;87.67;101208.82;105622;1263;125273;-77
2023/11/16 07:45:52;;;;;;;;;;;;;;;1.98;87.53;101209.76;105702;1259;70888;-76
2023/11/16 07:48:20;;;;;;;;;;;;;;;2.00;87.44;101210.23;105745;1263;62035;-77
2023/11/16 07:50:47;;;;;;;;;;;;;;;2.04;87.63;101204.64;105454;1264;125265;-77
2023/11/16 07:53:13;;;;;;;;;;;;;;;2.08;87.66;101202.99;105584;1261;75155;-77
2023/11/16 07:55:42;;;;;;;;;;;;;;;2.13;87.59;101197.98;105657;1264;125108;-77
2023/11/16 07:58:13;;;;;;;;;;;;;;;2.19;87.72;101194.35;105460;1261;73093;-77
2023/11/16 08:00:55;;;;;;;;;;;;;;;2.27;87.83;101191.92;106152;1261;62169;-77
2023/11/16 08:06:12;;;;;;;;;;;;;;;2.47;87.82;101187.86;105586;1258;75123;-77
2023/11/16 08:08:42;;;;;;;;;;;;;;;2.57;87.90;101187.33;105555;1262;125060;-76
2023/11/16 08:11:11;;;;;;;;;;;;;;;2.70;87.79;101188.29;105688;1262;71322;-76
2023/11/16 08:13:41;;;;;;;;;;;;;;;2.83;88.09;101185.48;105400;1264;126335;-76
2023/11/16 08:16:09;;;;;;;;;;;;;;;2.98;88.21;101184.30;106386;1264;62069;-77
2023/11/16 08:18:37;;;;;;;;;;;;;;;3.11;88.14;101188.59;105504;1261;73221;-77
2023/11/16 08:21:06;;;;;;;;;;;;;;;3.22;88.02;101189.81;106266;1263;125159;-77
2023/11/16 08:23:39;;;;;;;;;;;;;;;3.33;88.01;101181.12;106269;1264;72831;-77
2023/11/16 08:26:06;;;;;;;;;;;;;;;3.47;88.08;101185.95;105534;1258;125179;-78
2023/11/16 08:28:34;;;;;;;;;;;;;;;3.60;87.88;101187.26;105741;1264;61347;-77
2023/11/16 08:31:01;;;;;;;;;;;;;;;3.72;87.79;101187.10;105632;1258;125078;-77
2023/11/16 08:33:29;;;;;;;;;;;;;;;3.86;87.67;101183.90;107954;1263;66706;-77
2023/11/16 08:35:57;;;;;;;;;;;;;;;4.00;87.69;101187.35;105589;1259;71416;-77
2023/11/16 08:38:25;;;;;;;;;;;;;;;4.13;87.50;101184.27;105428;1261;124691;-78
2023/11/16 08:40:53;;;;;;;;;;;;;;;4.25;87.38;101186.02;106296;1260;62023;-87
2023/11/16 08:43:19;;;;;;;;;;;;;;;4.36;87.09;101182.98;105818;1265;125119;-86
2023/11/16 08:45:47;;;;;;;;;;;;;;;4.48;87.15;101174.27;106183;1261;66147;-86
2023/11/16 08:48:16;;;;;;;;;;;;;;;4.62;87.25;101170.21;105854;1263;72743;-86
2023/11/16 08:50:43;;;;;;;;;;;;;;;4.72;86.94;101169.20;105953;1261;124374;-87
2023/11/16 08:53:12;;;;;;;;;;;;;;;4.80;86.68;101165.95;106564;1258;62062;-87
2023/11/16 08:55:39;;;;;;;;;;;;;;;4.84;86.43;101166.55;106428;1262;124576;-87
2023/11/16 08:58:06;;;;;;;;;;;;;;;4.89;86.21;101164.22;106432;1261;65264;-86
2023/11/16 09:00:37;;;;;;;;;;;;;;;4.97;86.21;101176.80;106419;1261;73172;-86
2023/11/16 09:03:04;;;;;;;;;;;;;;;5.02;86.04;101181.96;106247;1257;124634;-85
2023/11/16 09:05:39;;;;;;;;;;;;;;;5.05;85.98;101179.83;106044;1258;61948;-86
2023/11/16 09:08:09;;;;;;;;;;;;;;;5.12;85.91;101184.40;105859;1263;125141;-86
2023/11/16 09:10:36;;;;;;;;;;;;;;;5.16;85.59;101186.71;105946;1262;66538;-87
2023/11/16 09:13:03;;;;;;;;;;;;;;;5.13;85.38;101181.29;105922;1260;125160;-86
2023/11/16 09:15:30;;;;;;;;;;;;;;;5.17;85.46;101174.58;105736;1258;62049;-78
2023/11/16 09:17:59;;;;;;;;;;;;;;;5.21;85.36;101169.39;105792;1263;62058;-77
2023/11/16 09:20:28;;;;;;;;;;;;;;;5.24;85.39;101169.92;105539;1258;236220;-76
2023/11/16 09:22:58;;;;;;;;;;;;;;;5.26;85.34;101170.34;105713;1264;66137;-76
2023/11/16 09:25:29;;;;;;;;;;;;;;;5.21;85.21;101169.43;105496;1259;125590;-77
2023/11/16 09:27:58;;;;;;;;;;;;;;;5.19;85.11;101173.96;105587;1258;62010;-77
2023/11/16 09:30:27;;;;;;;;;;;;;;;5.15;85.11;101172.73;105645;1258;62056;-78
2023/11/16 09:32:54;;;;;;;;;;;;;;;5.12;85.23;101169.96;108717;1257;125094;-76
2023/11/16 09:35:21;;;;;;;;;;;;;;;5.09;85.12;101169.27;105717;1264;66131;-78
2023/11/16 09:37:49;;;;;;;;;;;;;;;5.08;85.31;101165.02;105797;1265;125208;-78
2023/11/16 09:40:23;;;;;;;;;;;;;;;5.08;85.65;101162.10;108873;1258;59893;-77
2023/11/16 09:42:57;;;;;;;;;;;;;;;5.15;85.96;101159.84;107140;1261;62492;-77
2023/11/16 09:45:27;;;;;;;;;;;;;;;5.22;86.15;101155.54;105594;1263;75115;-77
2023/11/16 09:47:59;;;;;;;;;;;;;;;5.29;86.17;101155.88;106411;1261;67037;-77
2023/11/16 09:50:26;;;;;;;;;;;;;;;5.34;86.25;101153.91;105831;1262;124996;-77
2023/11/16 09:52:56;;;;;;;;;;;;;;;5.40;86.22;101147.58;105799;1257;62061;-76
2023/11/16 09:55:24;;;;;;;;;;;;;;;5.43;86.02;101144.97;105559;1258;126234;-77
2023/11/16 09:57:52;;;;;;;;;;;;;;;5.48;86.16;101145.91;106272;1259;75790;-78
2023/11/16 10:00:20;;;;;;;;;;;;;;;5.51;86.00;101138.23;105700;1263;64828;-78
2023/11/16 10:02:47;;;;;;;;;;;;;;;5.51;85.89;101135.45;106227;1263;126537;-77
2023/11/16 10:05:18;;;;;;;;;;;;;;;5.49;85.73;101132.38;105676;1264;62120;-77
2023/11/16 10:07:46;;;;;;;;;;;;;;;5.45;85.73;101133.38;106132;1265;125341;-76
2023/11/16 10:10:14;;;;;;;;;;;;;;;5.41;85.69;101128.67;105734;1258;75718;-77
2023/11/16 10:12:45;;;;;;;;;;;;;;;5.37;85.60;101121.33;105893;1257;66267;-77
2023/11/16 10:15:20;;;;;;;;;;;;;;;5.31;85.51;101119.81;105584;1264;125347;-79
2023/11/16 10:17:47;;;;;;;;;;;;;;;5.26;85.45;101116.94;105648;1262;62066;-78
2023/11/16 10:20:14;;;;;;;;;;;;;;;5.21;85.32;101117.86;106151;1263;125121;-78
2023/11/16 10:22:41;;;;;;;;;;;;;;;5.17;85.22;101120.45;106110;1266;75447;-76
2023/11/16 10:25:10;;;;;;;;;;;;;;;5.13;85.31;101120.94;105527;1266;125259;-76
2023/11/16 10:27:38;;;;;;;;;;;;;;;5.08;85.30;101117.74;108855;1257;72723;-77
2023/11/16 10:30:06;;;;;;;;;;;;;;;5.06;85.38;101116.40;108262;1263;62155;-86
2023/11/16 10:32:36;;;;;;;;;;;;;;;5.07;85.61;101114.55;106293;1261;124117;-86
2023/11/16 10:35:05;;;;;;;;;;;;;;;5.09;85.59;101112.06;106225;1257;75458;-86
2023/11/16 10:37:32;;;;;;;;;;;;;;;5.09;85.58;101105.95;105963;1262;125544;-76
2023/11/16 10:39:59;;;;;;;;;;;;;;;5.09;85.57;101107.48;105684;1263;72862;-85
2023/11/16 10:42:26;;;;;;;;;;;;;;;5.05;85.41;101106.42;106014;1262;62155;-86
2023/11/16 10:44:53;;;;;;;;;;;;;;;4.98;85.25;101106.95;105708;1261;125182;-77
2023/11/16 10:47:20;;;;;;;;;;;;;;;4.94;85.26;101108.14;105830;1257;73291;-86
2023/11/16 10:49:48;;;;;;;;;;;;;;;4.89;85.12;101108.02;105811;1259;126174;-78
2023/11/16 10:52:15;;;;;;;;;;;;;;;4.85;85.17;101105.40;106354;1258;72851;-86
2023/11/16 10:54:45;;;;;;;;;;;;;;;4.81;85.15;101102.54;105740;1258;62366;-87
2023/11/16 10:57:13;;;;;;;;;;;;;;;4.75;84.98;101099.65;106330;1264;125609;-87
2023/11/16 10:59:47;;;;;;;;;;;;;;;4.70;85.05;101093.10;106513;1257;75414;-87
2023/11/16 11:02:15;;;;;;;;;;;;;;;4.68;85.10;101095.42;106485;1262;124113;-77
2023/11/16 11:04:42;;;;;;;;;;;;;;;4.70;85.27;101091.19;106221;1257;71625;-78
2023/11/16 11:07:09;;;;;;;;;;;;;;;4.75;85.31;101087.09;106095;1258;126360;-78
2023/11/16 11:09:42;;;;;;;;;;;;;;;4.85;85.50;101084.86;106368;1258;62029;-78
2023/11/16 11:12:12;;;;;;;;;;;;;;;4.98;85.64;101083.60;106153;1260;73978;-78
2023/11/16 11:14:43;;;;;;;;;;;;;;;5.12;85.49;101084.89;106128;1258;125250;-78
2023/11/16 11:17:15;;;;;;;;;;;;;;;5.28;85.62;101077.69;106222;1257;72790;-78
2023/11/16 11:19:41;;;;;;;;;;;;;;;5.44;85.56;101078.35;106307;1257;125646;-87
2023/11/16 11:22:08;;;;;;;;;;;;;;;5.56;85.44;101075.81;105903;1264;62019;-77
2023/11/16 11:24:47;;;;;;;;;;;;;;;5.67;85.18;101069.42;106089;1267;76418;-78
2023/11/16 11:27:13;;;;;;;;;;;;;;;5.76;84.99;101066.17;106278;1258;124168;-78
2023/11/16 11:29:40;;;;;;;;;;;;;;;5.83;84.85;101063.95;106399;1258;72862;-78
2023/11/16 11:32:21;;;;;;;;;;;;;;;5.89;84.70;101063.15;106072;1259;124773;-78
2023/11/16 11:34:49;;;;;;;;;;;;;;;5.96;84.71;101059.73;106390;1257;61806;-77
2023/11/16 11:37:15;;;;;;;;;;;;;;;6.03;84.60;101056.91;106365;1258;125000;-77
2023/11/16 11:39:45;;;;;;;;;;;;;;;6.12;84.62;101055.41;105704;1258;64579;-76
2023/11/16 11:42:13;;;;;;;;;;;;;;;6.17;84.47;101048.00;108831;1257;71854;-77
2023/11/16 11:44:52;;;;;;;;;;;;;;;6.24;84.56;101046.92;106716;1257;124162;-77
2023/11/16 11:47:20;;;;;;;;;;;;;;;6.31;84.48;101041.52;105713;1257;62093;-76
2023/11/16 11:49:48;;;;;;;;;;;;;;;6.41;84.62;101038.98;105618;1262;125227;-77
2023/11/16 11:52:16;;;;;;;;;;;;;;;6.51;84.48;101038.59;105630;1263;66788;-77
2023/11/16 11:54:45;;;;;;;;;;;;;;;6.61;84.33;101038.73;106332;1261;72823;-78
2023/11/16 11:57:11;;;;;;;;;;;;;;;6.70;83.95;101038.93;106089;1257;125804;-77
2023/11/16 11:59:38;;;;;;;;;;;;;;;6.77;83.78;101036.83;106188;1263;62404;-77
2023/11/16 12:02:08;;;;;;;;;;;;;;;6.84;83.56;101028.73;105333;1261;126214;-76
2023/11/16 12:04:35;;;;;;;;;;;;;;;6.88;83.11;101031.88;105705;1263;66551;-76
2023/11/16 12:07:09;;;;;;;;;;;;;;;6.89;82.99;101026.02;105764;1260;125176;-77
2023/11/16 12:09:36;;;;;;;;;;;;;;;6.88;82.74;101020.37;105695;1263;62080;-77
2023/11/16 12:12:04;;;;;;;;;;;;;;;6.86;82.47;101012.41;105557;1263;62055;-77
2023/11/16 12:14:41;;;;;;;;;;;;;;;6.82;82.51;101014.71;105481;1264;125451;-78
2023/11/16 12:17:08;;;;;;;;;;;;;;;6.79;82.46;101010.94;106260;1258;65021;-76
2023/11/16 12:19:38;;;;;;;;;;;;;;;6.79;82.51;101007.29;105877;1257;125244;-86
2023/11/16 12:22:06;;;;;;;;;;;;;;;6.80;82.45;101004.00;106023;1263;62202;-77
2023/11/16 12:24:33;;;;;;;;;;;;;;;6.80;82.42;100998.77;105750;1258;62177;-75
2023/11/16 12:27:00;;;;;;;;;;;;;;;6.82;82.58;100994.84;105650;1257;125456;-76
2023/11/16 12:29:26;;;;;;;;;;;;;;;6.84;82.55;100996.13;105588;1258;64823;-76
2023/11/16 12:31:54;;;;;;;;;;;;;;;6.87;82.55;100995.58;105488;1264;125455;-77
2023/11/16 12:34:24;;;;;;;;;;;;;;;6.90;82.61;100992.75;105673;1261;62496;-77
2023/11/16 12:36:54;;;;;;;;;;;;;;;6.94;82.54;100991.68;105517;1258;62157;-78
2023/11/16 12:39:25;;;;;;;;;;;;;;;6.94;82.38;100990.62;105551;1261;124555;-78